Бехтеевка

СКИДКИ НА СМАРТФОНЫ!

Карта отелей и гостиниц, располагающихся рядом с аэропортом Бехтеевка :

Бехтеевка Белгородская область 50° 47' 9.96" N, 37° 16' 9.9588" E
Бехтеевка Белгородская область 50° 47' 9.96" N, 37° 16' 9.9588" E
Код аэродрома ИКАО
ZB7F
Код аэродрома RU
ЗБ7Ф
Координаты
N50.78610° E037.26943°
Превышение над уровнем моря
245
Основная полоса
12/30
Курс магнитный
118,8/298,8
Длина основной ВПП
420
Ширина основной ВПП
20
Покрытие основной ВПП
Твёрдое (асфальт)
Освещение ВПП
Нет
Тип: 
Аэродром
Класс аэродрома: 
Принадлежность: 
ГА
Статус: 
Недействующий
Сайт: 
E-mail аэродрома: 
Страна: 
Россия
Регион: 
Белгородская область
Город: 
Дополнительная информация: 
Площадка АХР.

Скидки на навигаторы!

Найти трансфер

С помощью этой формы Вы можете найти трансфер из аэропорта Бехтеевка в город, аэропорт или вокзал:

Погода в аэропортах:

Авиационная погода в Бресте

Регион: 
Погода METAR: 
UMBB 070500Z 18003MPS 1800 SHSNRA BR OVC002CB 00/00 Q1007 NOSIG RMK QBB070
Время наблюдения
2022-12-07T05:00:00Z
Температура C
0.0
Точка росы
0.0
Направление ветра
180
Скорость ветра (узлы)
6
Метео видимость
1.12
Облачность
OVC
Нижняя граница облачности (футы)
200
Явления погоды
SHSN SHRA BR
Условия полета
LIFR
Аэропорт подробнее: 
OVC – сплошная облачность;
SHRA - ливневой дождь; SHSN - ливневой снег; BR – дымка (видимость от 1 до 9 км);

Авиационная погода в аэропорту Алыкель

Регион: 
Погода METAR: 
UOOO 072100Z 03009MPS 1900 R01/P2000U SN BLSN OVC032 M22/M24 Q0999 R01/491030 NOSIG RMK QFE735/0980
Время наблюдения
2022-12-07T21:00:00Z
Температура C
-22.0
Точка росы
-24.0
Направление ветра
30
Скорость ветра (узлы)
17
Метео видимость
1.18
Облачность
OVC
Нижняя граница облачности (футы)
3200
Явления погоды
BLSN SN
Условия полета
IFR
Аэропорт подробнее: 
OVC – сплошная облачность;
BLSN – метель низовая или общая;

Авиационная погода в Усть-Каменогорске

Регион: 
Погода METAR: 
UASK 070500Z 27001MPS 1500 R30/1500 -SN BR BCFG BKN030 M25/M28 Q1039 TEMPO 0200 FZFG BKN002 RMK QFE753/1005
Время наблюдения
2022-12-07T05:00:00Z
Температура C
-25.0
Точка росы
-28.0
Направление ветра
270
Скорость ветра (узлы)
2
Метео видимость
0.93
Облачность
BKN
Нижняя граница облачности (футы)
3000
Явления погоды
BCFG -SN BR
Условия полета
LIFR
Аэропорт подробнее: 
BKN – значительная (рассеянная, разорванная) облачность;
FG – туман (небо не видно, температура воздуха выше нуля или ноль); -SN – слабый снег; BR – дымка (видимость от 1 до 9 км);

Авиационная погода в Чимкенте

Регион: 
Погода METAR: 
UAII 070500Z 10002MPS 5000 BR SCT050CB M03/M06 Q1030 NOSIG RMK QFE735/0980
Время наблюдения
2022-12-07T05:00:00Z
Температура C
-3.0
Точка росы
-6.0
Направление ветра
100
Скорость ветра (узлы)
4
Метео видимость
3.11
Облачность
SCT
Нижняя граница облачности (футы)
5000
Явления погоды
BR
Условия полета
MVFR
Аэропорт подробнее: 
SCT – разбросанная отдельная облачность;
BR – дымка (видимость от 1 до 9 км);